LTT weather

Lomas Tristes Airport
Tacotalpa, Tabasco, Mexico

Public forecast

Using degrees Celsius for public forecast. Weather courtesy of forecast.io.

Closest aviation weather report (METAR) to Lomas Tristes Airport

Closest report is Carlos Rovirosa Pérez International Airport, 28.9 nm (53.6 km) NNW. Retrieved 2019/12/13 10:40 UTC (0 seconds ago):

MMVA 131040Z 00000KT 1/16SM FG VV001 ///// A3000 RMK 8//// RTS

Closest aviation forecast (TAF) to Lomas Tristes Airport

Closest forecast is Carlos Rovirosa Pérez International Airport, 28.9 nm (53.6 km) NNW. Retrieved 2019/12/13 06:29 UTC (4 hours ago):

TAF COR MMVA 130524Z 1306/1406 00000KT 1/2SM FG VV002 TEMPO 1308/1312 1/4SM FG VV001 FM131300 00000KT 2SM BR HZ BKN010 FM131500 06008KT 5SM HZ SCT020 BKN250 FM132200 03008KT 6SM HZ BKN020 FM140300 06005KT 5SM HZ SCT015 SCT250